This is the latest recevied weather packets stored in our database for station/object SP4MAZ-13. If no packets are shown the sender has not sent any weather packets the latest 10 day(s).
| Time | Temp. | Humidity | Pressure | Rain* | Wind** | Luminosity | Snow |
|---|---|---|---|---|---|---|---|
| 1777797670 | 23.89° C | 29% | 2147.4 hPa | - | - | - | - |
| 1777797367 | 23.89° C | 26% | 2147.4 hPa | - | - | - | - |
| 1777797065 | 24.44° C | 28% | 2147.4 hPa | - | - | - | - |
| 1777796762 | 24.44° C | 28% | 2147.4 hPa | - | - | - | - |
| 1777796461 | 23.89° C | 29% | 2147.4 hPa | - | - | - | - |
| 1777796156 | 23.33° C | 32% | 2147.4 hPa | - | - | - | - |
| 1777795854 | 23.33° C | 31% | 2147.4 hPa | - | - | - | - |
| 1777795550 | 23.33° C | 29% | 2147.4 hPa | - | - | - | - |
| 1777795247 | 22.78° C | 30% | 2147.4 hPa | - | - | - | - |
| 1777794943 | 22.22° C | 30% | 2147.4 hPa | - | - | - | - |
| 1777794640 | 22.22° C | 33% | 2147.4 hPa | - | - | - | - |
| 1777794337 | 21.11° C | 34% | 2147.4 hPa | - | - | - | - |
| 1777794033 | 21.11° C | 37% | 2147.4 hPa | - | - | - | - |
| 1777793729 | 22.78° C | 32% | 2147.4 hPa | - | - | - | - |
| 1777793427 | 22.78° C | 32% | 2147.4 hPa | - | - | - | - |
| 1777793124 | 22.78° C | 33% | 2147.4 hPa | - | - | - | - |
| 1777792823 | 23.33° C | 30% | 2147.4 hPa | - | - | - | - |
| 1777792522 | 23.33° C | 33% | 2147.4 hPa | - | - | - | - |
| 1777792218 | 23.33° C | 31% | 2147.4 hPa | - | - | - | - |
| 1777791917 | 22.78° C | 33% | 2147.4 hPa | - | - | - | - |
| 1777791616 | 22.22° C | 34% | 2147.4 hPa | - | - | - | - |
| 1777791313 | 21.67° C | 37% | 2147.4 hPa | - | - | - | - |
| 1777791009 | 21.67° C | 33% | 2147.4 hPa | - | - | - | - |
| 1777790706 | 21.67° C | 35% | 2147.4 hPa | - | - | - | - |
| 1777790402 | 21.67° C | 34% | 2147.4 hPa | - | - | - | - |
* Rain since midnight (hover to see other rain measurements)
** Current wind speed in m/s (hover to see current wind gust speed)